Change the Weather History Date:

Sunday, August 17, 2014

  Actual Average Record
Temperature  
Mean Temperature 62 °F -  
Max Temperature 66 °F 68 °F 84 °F (2008)
Min Temperature 57 °F 55 °F 51 °F (2007)
Degree Days  
Heating Degree Days 4    
Growing Degree Days 12 (Base 50)    
Moisture  
Dew Point 58 °F    
Average Humidity 88    
Maximum Humidity 97    
Minimum Humidity 71    
Precipitation  
Precipitation 0.00 in - - ()
Sea Level Pressure  
Sea Level Pressure 30.05 in    
Wind  
Wind Speed 5 mph (NE)    
Max Wind Speed 13 mph    
Max Gust Speed -    
Visibility 10 miles    
Events      
Averages and records for this station are not official NWS values.
T = Trace of Precipitation, MM = Missing Value Source: NWS Daily Summary

Daily Weather History Graph

Daily Weather History Graph

Search for Another Location

Airport or City:

Trip Planner

Search our weather history database for the weather conditions in past years. The results will help you decide how hot, cold, wet, or windy it might be!

Date:

Astronomy

Aug. 17, 2014 Rise Set
Actual Time 6:44 AM EDT 8:44 PM EDT
Civil Twilight 6:12 AM EDT 9:16 PM EDT
Nautical Twilight 5:33 AM EDT 9:55 PM EDT
Astronomical Twilight 4:49 AM EDT 10:38 PM EDT
Moon 12:08 AM EDT (8/17) 2:52 PM EDT (8/17)
Length of Visible Light 15h 04m
Length of Day
14h 00m
Waning Gibbous, 48% of the Moon is Illuminated
Aug 17
Waning Gibbous
Aug 25
New
Sep 2
First Quarter
Sep 8
Full
Sep 15
Last Quarter

Hourly Weather History & Observations

Time (EDT) Temp. Dew Point Humidity Pressure Visibility Wind Dir Wind Speed Gust Speed Precip Events Conditions
12:15 AM 60.8 °F 58.3 °F 91% 29.99 in 10.0 mi North 4.6 mph - N/A   Clear
12:35 AM 60.4 °F 58.1 °F 92% 29.99 in 10.0 mi North 8.1 mph - N/A   Clear
12:55 AM 59.9 °F 57.6 °F 92% 29.99 in 10.0 mi North 5.8 mph - N/A   Clear
1:15 AM 59.7 °F 57.7 °F 93% 30.00 in 10.0 mi NNW 3.5 mph - N/A   Clear
1:34 AM 59.0 °F 57.2 °F 94% 30.00 in 10.0 mi Calm Calm - N/A   Clear
1:55 AM 58.8 °F 57.2 °F 94% 30.00 in 10.0 mi Calm Calm - N/A   Clear
2:14 AM 58.3 °F 57.0 °F 96% 30.00 in 10.0 mi North 4.6 mph - N/A   Clear
2:35 AM 58.6 °F 57.2 °F 95% 30.00 in 10.0 mi NNW 5.8 mph - N/A   Clear
2:54 AM 58.6 °F 57.4 °F 96% 30.01 in 10.0 mi North 6.9 mph - N/A   Scattered Clouds
3:15 AM 58.6 °F 57.2 °F 95% 30.01 in 10.0 mi NNW 5.8 mph - N/A   Overcast
3:35 AM 58.6 °F 57.2 °F 95% 30.01 in 10.0 mi North 4.6 mph - N/A   Overcast
3:55 AM 58.5 °F 57.0 °F 95% 30.01 in 10.0 mi North 5.8 mph - N/A   Overcast
4:15 AM 58.3 °F 56.8 °F 95% 30.02 in 10.0 mi NNE 3.5 mph - N/A   Overcast
4:34 AM 58.6 °F 57.2 °F 95% 30.02 in 10.0 mi NE 4.6 mph - N/A   Overcast
4:55 AM 58.3 °F 56.8 °F 95% 30.03 in 10.0 mi North 4.6 mph - N/A   Overcast
5:14 AM 58.1 °F 56.7 °F 95% 30.03 in 10.0 mi Calm Calm - N/A   Overcast
5:35 AM 57.2 °F 56.3 °F 97% 30.02 in 10.0 mi ENE 3.5 mph - N/A   Mostly Cloudy
5:55 AM 57.2 °F 56.5 °F 97% 30.03 in 10.0 mi Calm Calm - N/A   Overcast
6:15 AM 57.9 °F 57.2 °F 97% 30.04 in 10.0 mi East 3.5 mph - N/A   Overcast
6:35 AM 58.6 °F 57.6 °F 96% 30.04 in 10.0 mi SE 4.6 mph - N/A   Overcast
6:55 AM 58.6 °F 57.4 °F 96% 30.05 in 10.0 mi SE 3.5 mph - N/A   Mostly Cloudy
7:15 AM 58.8 °F 57.6 °F 96% 30.05 in 10.0 mi SE 4.6 mph - N/A   Overcast
7:35 AM 58.8 °F 57.6 °F 96% 30.05 in 10.0 mi SE 3.5 mph - N/A   Mostly Cloudy
7:55 AM 59.2 °F 57.7 °F 95% 30.06 in 10.0 mi ENE 5.8 mph - N/A   Overcast
8:15 AM 59.5 °F 58.1 °F 95% 30.07 in 10.0 mi ENE 6.9 mph - N/A   Overcast
8:35 AM 60.1 °F 58.5 °F 94% 30.07 in 10.0 mi East 6.9 mph - N/A   Overcast
8:54 AM 60.3 °F 58.5 °F 94% 30.07 in 10.0 mi East 6.9 mph - N/A   Overcast
9:15 AM 60.6 °F 58.5 °F 93% 30.07 in 10.0 mi East 4.6 mph - N/A   Overcast
9:35 AM 60.8 °F 58.6 °F 93% 30.07 in 10.0 mi ESE 4.6 mph - N/A   Overcast
9:54 AM 61.2 °F 58.5 °F 91% 30.07 in 10.0 mi East 4.6 mph - N/A   Overcast
10:15 AM 61.9 °F 59.0 °F 90% 30.08 in 10.0 mi East 4.6 mph - N/A   Overcast
10:35 AM 62.8 °F 59.0 °F 87% 30.08 in 10.0 mi Calm Calm - N/A   Overcast
10:55 AM 62.8 °F 59.0 °F 87% 30.08 in 10.0 mi Calm Calm - N/A   Overcast
11:15 AM 63.1 °F 58.6 °F 85% 30.08 in 10.0 mi East 4.6 mph - N/A   Overcast
11:35 AM 64.4 °F 58.8 °F 82% 30.08 in 10.0 mi East 4.6 mph - N/A   Overcast
11:55 AM 64.4 °F 59.5 °F 84% 30.08 in 10.0 mi NNE 5.8 mph - N/A   Overcast
12:15 PM 63.5 °F 59.2 °F 86% 30.08 in 10.0 mi North 8.1 mph - N/A   Overcast
12:34 PM 62.4 °F 59.0 °F 89% 30.09 in 10.0 mi North 4.6 mph - N/A   Overcast
12:55 PM 63.0 °F 59.0 °F 87% 30.09 in 10.0 mi North 8.1 mph - N/A   Overcast
1:15 PM 62.2 °F 58.5 °F 87% 30.09 in 10.0 mi North 6.9 mph - N/A   Overcast
1:34 PM 62.6 °F 58.8 °F 87% 30.09 in 10.0 mi North 8.1 mph - N/A   Overcast
1:55 PM 62.8 °F 59.2 °F 88% 30.08 in 10.0 mi North 8.1 mph - N/A   Overcast
2:15 PM 63.7 °F 59.5 °F 86% 30.08 in 10.0 mi NNE 9.2 mph - N/A   Overcast
2:35 PM 63.1 °F 59.0 °F 86% 30.07 in 10.0 mi North 9.2 mph - N/A   Overcast
2:55 PM 63.5 °F 59.2 °F 86% 30.07 in 10.0 mi North 9.2 mph - N/A   Overcast
3:14 PM 64.4 °F 59.2 °F 83% 30.07 in 10.0 mi North 9.2 mph - N/A   Overcast
3:35 PM 64.0 °F 59.0 °F 84% 30.07 in 10.0 mi North 8.1 mph - N/A   Overcast
3:55 PM 64.0 °F 58.8 °F 83% 30.07 in 10.0 mi North 9.2 mph - N/A   Overcast
4:15 PM 64.4 °F 58.8 °F 82% 30.06 in 10.0 mi NNE 10.4 mph - N/A   Overcast
4:35 PM 65.7 °F 60.1 °F 82% 30.06 in 10.0 mi North 11.5 mph - N/A   Overcast
4:55 PM 65.3 °F 58.5 °F 78% 30.05 in 10.0 mi NNE 11.5 mph - N/A   Mostly Cloudy
5:14 PM 65.3 °F 57.6 °F 76% 30.05 in 10.0 mi North 12.7 mph - N/A   Scattered Clouds
5:35 PM 65.3 °F 58.3 °F 78% 30.05 in 10.0 mi North 9.2 mph - N/A   Clear
6:14 PM 65.8 °F 57.4 °F 74% 30.05 in 10.0 mi North 9.2 mph - N/A   Clear
6:35 PM 66.2 °F 56.7 °F 71% 30.04 in 10.0 mi NNE 8.1 mph - N/A   Clear
6:55 PM 65.8 °F 56.7 °F 72% 30.03 in 10.0 mi NE 6.9 mph - N/A   Clear
7:14 PM 65.7 °F 56.3 °F 72% 30.03 in 10.0 mi NNE 9.2 mph - N/A   Clear
7:35 PM 65.7 °F 57.2 °F 74% 30.03 in 10.0 mi NNE 4.6 mph - N/A   Clear
7:55 PM 65.5 °F 57.6 °F 76% 30.03 in 10.0 mi NNE 4.6 mph - N/A   Clear
8:14 PM 65.1 °F 57.9 °F 77% 30.03 in 10.0 mi NE 3.5 mph - N/A   Clear
8:35 PM 64.4 °F 57.7 °F 79% 30.03 in 10.0 mi Calm Calm - N/A   Clear
8:55 PM 63.5 °F 57.7 °F 81% 30.04 in 10.0 mi Calm Calm - N/A   Clear
9:14 PM 63.3 °F 58.1 °F 83% 30.04 in 2.5 mi East 3.5 mph - N/A   Haze
9:35 PM 62.6 °F 58.3 °F 86% 30.05 in 10.0 mi East 4.6 mph - N/A   Clear
9:55 PM 62.4 °F 58.8 °F 88% 30.05 in 10.0 mi East 5.8 mph - N/A   Clear
10:15 PM 63.3 °F 58.6 °F 85% 30.05 in 10.0 mi East 5.8 mph - N/A   Clear
10:35 PM 63.1 °F 58.6 °F 85% 30.05 in 10.0 mi East 3.5 mph - N/A   Clear
10:54 PM 62.4 °F 58.5 °F 87% 30.04 in 10.0 mi ESE 4.6 mph - N/A   Clear
11:15 PM 62.6 °F 59.0 °F 88% 30.04 in 10.0 mi East 5.8 mph - N/A   Clear
11:35 PM 62.8 °F 58.5 °F 86% 30.03 in 10.0 mi East 5.8 mph - N/A   Clear
11:55 PM 61.5 °F 58.6 °F 90% 30.03 in 10.0 mi SE 3.5 mph - N/A   Clear